Time;durP1;ratioP1;P1;durP2;ratioP2;P2;SDS_P1;SDS_P2;PMS_P1;PMS_P2;Temp;Humidity;BMP_temperature;BMP_pressure;BME280_temperature;BME280_humidity;BME280_pressure;Samples;Min_cycle;Max_cycle;Signal;HPM_P1;HPM_P2
2021/11/08 00:00:01;;;;;;;12.77;5.60;;;6.90;99.90;;;;;;4952288;29;20204;-72
2021/11/08 00:02:28;;;;;;;7.03;6.10;;;6.90;99.90;;;;;;4952798;28;20600;-72
2021/11/08 00:04:54;;;;;;;10.83;5.17;;;6.90;99.90;;;;;;4952887;28;20470;-72
2021/11/08 00:07:20;;;;;;;17.03;5.43;;;6.90;99.90;;;;;;4953074;28;20514;-72
2021/11/08 00:09:46;;;;;;;19.63;10.43;;;7.00;99.90;;;;;;4953105;28;20504;-72
2021/11/08 00:12:13;;;;;;;14.07;10.20;;;7.00;99.90;;;;;;4953355;28;20683;-72
2021/11/08 00:14:41;;;;;;;21.10;9.40;;;7.00;99.90;;;;;;4955373;28;20422;-72
2021/11/08 00:19:57;;;;;;;12.03;6.50;;;7.00;99.90;;;;;;4956364;28;20408;-72
2021/11/08 00:22:23;;;;;;;8.17;6.33;;;7.00;99.90;;;;;;4956258;28;21029;-72
2021/11/08 00:24:50;;;;;;;12.37;6.33;;;7.00;99.90;;;;;;4956103;28;20667;-72
2021/11/08 00:27:16;;;;;;;10.67;6.27;;;7.00;99.90;;;;;;4956089;28;20178;-72
2021/11/08 00:29:42;;;;;;;9.77;6.57;;;6.90;99.90;;;;;;4955806;28;20414;-72
2021/11/08 00:32:08;;;;;;;12.87;7.70;;;6.90;99.90;;;;;;4956136;28;20508;-72
2021/11/08 00:34:34;;;;;;;17.47;6.10;;;6.80;99.90;;;;;;4955995;28;20170;-71
2021/11/08 00:37:00;;;;;;;9.90;6.50;;;6.70;99.90;;;;;;4956281;28;20389;-71
2021/11/08 00:39:26;;;;;;;9.37;6.07;;;6.60;99.90;;;;;;4956373;28;20785;-72
2021/11/08 00:41:52;;;;;;;9.43;6.40;;;6.60;99.90;;;;;;4955901;28;20194;-72
2021/11/08 00:44:19;;;;;;;8.60;6.40;;;6.50;99.90;;;;;;4956180;28;20463;-73
2021/11/08 00:46:45;;;;;;;12.87;6.60;;;6.40;99.90;;;;;;4955891;28;20502;-72
2021/11/08 00:49:12;;;;;;;15.80;7.00;;;6.30;99.90;;;;;;4956253;28;20771;-72
2021/11/08 00:51:41;;;;;;;9.33;6.80;;;6.20;99.90;;;;;;4955792;28;20463;-72
2021/11/08 00:54:10;;;;;;;11.63;6.80;;;6.10;99.90;;;;;;4955834;28;20946;-74
2021/11/08 00:56:37;;;;;;;13.43;6.80;;;6.00;99.90;;;;;;4955740;28;20425;-73
2021/11/08 00:59:03;;;;;;;14.87;7.10;;;5.90;99.90;;;;;;4955973;28;20950;-73
2021/11/08 05:33:19;;;;;;;7.23;4.07;;;1.70;99.90;;;;;;4969422;28;20478;-76
2021/11/08 05:35:44;;;;;;;7.97;5.13;;;1.70;99.90;;;;;;4973796;28;20426;-75
2021/11/08 05:38:12;;;;;;;7.60;4.43;;;1.70;99.90;;;;;;4973126;28;20940;-76
2021/11/08 05:40:37;;;;;;;7.70;4.30;;;1.60;99.90;;;;;;4973316;28;20200;-75
2021/11/08 05:43:06;;;;;;;9.13;4.80;;;1.60;99.90;;;;;;4973208;28;20698;-76
2021/11/08 05:45:34;;;;;;;4.20;3.90;;;1.60;99.90;;;;;;4972958;28;20200;-76
2021/11/08 05:48:08;;;;;;;10.97;3.77;;;1.60;99.90;;;;;;4972883;28;20504;-76
2021/11/08 05:50:35;;;;;;;7.30;4.60;;;1.50;99.90;;;;;;4972882;28;20406;-76
2021/11/08 05:53:02;;;;;;;11.63;5.00;;;1.50;99.90;;;;;;4973245;28;20419;-76
2021/11/08 05:55:35;;;;;;;4.03;3.63;;;1.50;99.90;;;;;;4987808;28;20924;-76
2021/11/08 05:58:14;;;;;;;5.63;4.73;;;1.50;99.90;;;;;;4973128;28;20436;-76
2021/11/08 06:50:06;;;;;;;11.30;4.60;;;1.80;99.90;;;;;;4973494;28;20407;-79
2021/11/08 06:52:33;;;;;;;11.37;5.00;;;1.80;99.90;;;;;;4989318;28;20821;-79
2021/11/08 06:55:05;;;;;;;8.67;4.70;;;1.90;99.90;;;;;;4993883;28;20393;-79
2021/11/08 06:57:34;;;;;;;20.73;5.20;;;2.00;99.90;;;;;;4994273;28;20850;-79
2021/11/08 07:00:00;;;;;;;10.53;4.80;;;2.00;99.90;;;;;;4992701;28;20425;-79
2021/11/08 07:02:26;;;;;;;13.60;6.10;;;2.20;99.90;;;;;;4993725;28;20438;-79
2021/11/08 07:04:55;;;;;;;14.77;5.63;;;2.20;99.90;;;;;;4993669;28;20954;-79
2021/11/08 07:07:21;;;;;;;8.73;4.73;;;2.30;99.90;;;;;;4994233;28;20441;-79
2021/11/08 07:09:47;;;;;;;5.00;4.37;;;2.40;99.90;;;;;;4993971;28;20531;-79
2021/11/08 07:12:14;;;;;;;13.47;4.57;;;2.50;99.90;;;;;;4992511;28;20724;-79
2021/11/08 07:14:40;;;;;;;6.40;3.37;;;2.60;99.90;;;;;;4969660;28;20435;-79
2021/11/08 07:17:06;;;;;;;7.27;4.10;;;2.70;99.90;;;;;;4973378;28;20398;-79
2021/11/08 07:19:32;;;;;;;11.90;4.03;;;3.00;99.90;;;;;;4974707;28;20420;-79
2021/11/08 07:21:58;;;;;;;5.53;3.17;;;3.10;99.90;;;;;;4988288;28;20421;-78
2021/11/08 07:24:24;;;;;;;9.37;4.50;;;3.20;99.90;;;;;;4994425;28;20494;-79
2021/11/08 07:26:50;;;;;;;7.90;3.83;;;3.50;99.90;;;;;;4992891;28;20180;-79
2021/11/08 07:29:16;;;;;;;6.50;4.33;;;3.80;99.90;;;;;;4993381;28;20256;-79
2021/11/08 07:31:43;;;;;;;7.67;4.10;;;4.00;99.90;;;;;;4992647;28;20469;-79
2021/11/08 07:34:09;;;;;;;6.80;4.07;;;4.30;99.90;;;;;;4993195;28;20921;-79
2021/11/08 07:36:35;;;;;;;12.43;4.13;;;4.50;99.90;;;;;;4994563;28;20474;-79
2021/11/08 07:39:01;;;;;;;7.27;4.00;;;4.80;99.90;;;;;;4994742;28;20447;-79
2021/11/08 07:41:26;;;;;;;6.50;2.97;;;5.00;99.90;;;;;;4994539;28;20712;-79
2021/11/08 07:43:52;;;;;;;7.57;3.43;;;5.30;99.90;;;;;;4993815;28;20674;-77
2021/11/08 07:46:18;;;;;;;11.00;4.40;;;5.40;99.90;;;;;;4991804;28;20214;-77
2021/11/08 07:48:45;;;;;;;8.70;4.17;;;5.50;99.90;;;;;;4992074;28;20170;-77
2021/11/08 07:51:13;;;;;;;4.87;4.13;;;5.50;99.90;;;;;;4977497;28;20450;-77
2021/11/08 07:53:39;;;;;;;7.40;3.27;;;5.60;99.90;;;;;;4971746;28;20487;-77
2021/11/08 07:56:05;;;;;;;10.93;4.37;;;5.80;99.90;;;;;;4972526;28;20415;-80
2021/11/08 07:58:33;;;;;;;6.47;3.20;;;6.00;99.90;;;;;;4973759;28;20413;-81
2021/11/08 08:00:59;;;;;;;12.60;3.30;;;6.20;99.90;;;;;;4968920;28;20814;-76
2021/11/08 08:03:26;;;;;;;17.40;4.60;;;6.40;99.90;;;;;;4970021;28;20434;-76
2021/11/08 08:05:54;;;;;;;10.13;4.00;;;6.60;99.90;;;;;;4971956;28;20180;-76
2021/11/08 08:08:20;;;;;;;7.40;4.07;;;6.80;99.90;;;;;;4971481;28;20420;-76
2021/11/08 08:10:49;;;;;;;11.57;4.47;;;6.60;99.90;;;;;;4972068;28;20462;-76
2021/11/08 08:13:16;;;;;;;7.00;4.13;;;6.70;99.90;;;;;;4970271;28;20575;-76
2021/11/08 08:15:42;;;;;;;7.50;3.60;;;6.80;99.90;;;;;;4970619;28;20437;-75
2021/11/08 08:18:10;;;;;;;14.60;3.93;;;7.10;99.90;;;;;;4971569;28;20421;-76
2021/11/08 08:20:35;;;;;;;8.63;4.30;;;7.30;99.90;;;;;;4970988;28;20206;-75
2021/11/08 08:23:01;;;;;;;7.87;5.13;;;7.50;99.90;;;;;;4970938;28;20623;-75
2021/11/08 08:25:27;;;;;;;4.73;3.53;;;7.70;99.90;;;;;;4971419;28;20180;-76
2021/11/08 08:27:52;;;;;;;17.77;5.80;;;7.90;99.90;;;;;;4970906;28;20238;-76
2021/11/08 08:30:18;;;;;;;15.67;5.83;;;7.90;99.90;;;;;;4972191;28;20174;-76
2021/11/08 08:32:44;;;;;;;11.87;6.20;;;8.00;99.90;;;;;;4971719;28;20276;-76
2021/11/08 08:35:10;;;;;;;18.80;6.00;;;8.00;99.90;;;;;;4973637;28;20318;-74
2021/11/08 08:37:36;;;;;;;14.20;5.67;;;8.00;99.90;;;;;;4988369;28;20181;-74
2021/11/08 08:40:02;;;;;;;15.30;5.90;;;8.10;99.90;;;;;;4994820;28;20418;-74
2021/11/08 08:42:28;;;;;;;16.67;6.20;;;8.20;99.90;;;;;;4994357;28;20263;-74
2021/11/08 08:44:54;;;;;;;12.40;7.30;;;8.40;99.90;;;;;;4994635;28;20494;-74
2021/11/08 08:47:20;;;;;;;19.83;6.40;;;8.70;99.90;;;;;;4995345;28;20314;-74
2021/11/08 08:49:46;;;;;;;10.93;6.60;;;9.00;99.90;;;;;;4991965;28;20269;-75
2021/11/08 08:52:12;;;;;;;13.57;6.63;;;9.10;99.90;;;;;;4993880;28;20503;-74
2021/11/08 08:54:39;;;;;;;13.90;6.27;;;9.50;99.90;;;;;;4994218;28;20561;-74
2021/11/08 08:57:06;;;;;;;11.30;6.40;;;9.80;99.90;;;;;;4994722;28;20428;-74
2021/11/08 08:59:32;;;;;;;12.70;6.17;;;10.20;99.90;;;;;;4994308;28;20456;-74
2021/11/08 09:01:58;;;;;;;12.20;6.17;;;10.60;99.90;;;;;;4993971;28;20432;-74
2021/11/08 09:04:27;;;;;;;12.73;6.20;;;11.00;99.90;;;;;;4994286;28;20463;-74
2021/11/08 09:06:53;;;;;;;15.60;5.93;;;11.40;99.90;;;;;;4993758;28;20173;-74
2021/11/08 09:09:19;;;;;;;11.83;6.00;;;11.70;99.90;;;;;;4994428;28;20436;-74
2021/11/08 09:11:45;;;;;;;19.83;7.87;;;12.10;99.90;;;;;;4993887;28;20846;-74
2021/11/08 09:14:11;;;;;;;13.20;6.70;;;12.20;99.90;;;;;;4994231;28;20415;-74
2021/11/08 09:16:36;;;;;;;15.90;7.70;;;12.40;99.90;;;;;;4994199;28;20538;-74
2021/11/08 09:19:04;;;;;;;14.90;7.33;;;12.50;99.90;;;;;;4994249;28;20178;-74
2021/11/08 09:21:31;;;;;;;16.03;6.53;;;12.60;99.90;;;;;;4993981;28;20195;-74
2021/11/08 09:23:59;;;;;;;14.47;5.30;;;12.90;99.90;;;;;;4993845;28;20553;-74
2021/11/08 09:26:26;;;;;;;15.33;5.60;;;12.90;99.90;;;;;;4994222;28;20418;-75
2021/11/08 09:28:52;;;;;;;10.53;5.73;;;13.20;99.90;;;;;;4993950;28;20786;-73
2021/11/08 09:31:20;;;;;;;8.63;5.73;;;13.20;99.90;;;;;;4976193;28;20497;-74
2021/11/08 09:33:46;;;;;;;7.60;5.37;;;13.10;99.90;;;;;;4993893;28;20656;-74
2021/11/08 09:36:13;;;;;;;9.87;5.60;;;13.30;99.90;;;;;;4992434;28;20525;-75
2021/11/08 09:38:49;;;;;;;10.67;5.77;;;12.90;99.90;;;;;;4992606;28;20449;-74
2021/11/08 09:41:16;;;;;;;13.47;5.80;;;12.30;99.90;;;;;;4992129;28;20426;-75
2021/11/08 09:43:43;;;;;;;12.30;5.80;;;12.00;99.90;;;;;;4992557;28;20914;-75
2021/11/08 09:46:09;;;;;;;11.57;5.17;;;11.60;99.90;;;;;;4988916;28;20481;-75
2021/11/08 09:48:39;;;;;;;14.73;5.37;;;11.30;99.90;;;;;;4993330;28;20830;-75
2021/11/08 09:51:08;;;;;;;24.60;7.23;;;11.00;99.90;;;;;;4992822;28;20458;-75
2021/11/08 09:53:34;;;;;;;12.33;5.77;;;10.80;99.90;;;;;;4991250;28;20414;-75
2021/11/08 09:56:03;;;;;;;13.97;5.40;;;10.70;99.90;;;;;;4973508;28;20427;-75
2021/11/08 09:58:28;;;;;;;13.40;5.23;;;10.60;99.90;;;;;;4989764;28;20582;-75
2021/11/08 10:00:56;;;;;;;13.13;5.63;;;10.70;99.90;;;;;;4992957;28;20444;-75
2021/11/08 10:03:29;;;;;;;16.33;6.97;;;10.40;99.90;;;;;;4992509;28;20202;-75
2021/11/08 10:05:57;;;;;;;11.57;5.73;;;10.40;99.90;;;;;;4992783;28;20438;-75
2021/11/08 10:08:30;;;;;;;16.00;6.90;;;10.20;99.90;;;;;;4992707;28;20517;-75
2021/11/08 10:10:59;;;;;;;12.50;6.53;;;10.10;99.90;;;;;;4992741;28;20469;-75
2021/11/08 10:13:27;;;;;;;16.03;6.90;;;10.10;99.90;;;;;;4992536;28;20421;-75
2021/11/08 10:16:01;;;;;;;15.10;7.60;;;10.00;99.90;;;;;;4974199;28;20439;-75
2021/11/08 10:18:27;;;;;;;15.90;7.63;;;9.90;99.90;;;;;;4971407;28;20790;-75
2021/11/08 10:21:03;;;;;;;14.43;7.20;;;9.90;99.90;;;;;;4973320;28;20442;-75
2021/11/08 10:23:29;;;;;;;11.97;5.57;;;9.70;99.90;;;;;;4972308;28;20210;-75
2021/11/08 10:25:55;;;;;;;18.27;5.63;;;9.80;99.90;;;;;;4970932;28;20427;-75
2021/11/08 10:28:23;;;;;;;18.30;6.17;;;9.60;99.90;;;;;;4972973;28;20190;-74
2021/11/08 10:30:57;;;;;;;12.33;6.73;;;9.60;99.90;;;;;;4971573;28;20833;-74
2021/11/08 10:33:30;;;;;;;13.20;6.43;;;9.60;99.90;;;;;;4971017;28;20433;-75
2021/11/08 10:36:01;;;;;;;12.77;5.93;;;9.70;99.90;;;;;;4973739;28;20787;-75
2021/11/08 10:38:31;;;;;;;19.23;7.77;;;9.80;99.90;;;;;;4990901;28;20395;-75
2021/11/08 10:41:01;;;;;;;17.67;6.43;;;10.00;99.90;;;;;;4991087;28;20815;-74
2021/11/08 10:43:33;;;;;;;13.60;6.63;;;10.00;99.90;;;;;;4971123;28;20484;-75
2021/11/08 10:46:06;;;;;;;11.70;5.70;;;10.10;99.90;;;;;;4972676;28;20403;-75
2021/11/08 10:48:35;;;;;;;10.70;5.83;;;10.10;99.90;;;;;;4972630;28;20762;-75
2021/11/08 10:51:03;;;;;;;21.27;6.87;;;10.10;99.90;;;;;;4973387;28;20443;-75
2021/11/08 10:53:31;;;;;;;16.97;6.17;;;10.10;99.90;;;;;;4991489;28;20425;-75
2021/11/08 10:56:06;;;;;;;23.57;7.13;;;10.00;99.90;;;;;;4992101;28;20416;-75
2021/11/08 10:58:32;;;;;;;16.63;7.83;;;10.00;99.90;;;;;;4991562;28;20505;-75
2021/11/08 11:01:01;;;;;;;17.33;6.60;;;10.20;99.90;;;;;;4991497;28;20840;-75
2021/11/08 11:03:28;;;;;;;21.50;5.70;;;10.20;99.90;;;;;;4970292;28;20525;-75
2021/11/08 11:05:57;;;;;;;16.57;6.40;;;10.30;99.90;;;;;;4968687;28;20831;-74
2021/11/08 11:08:23;;;;;;;14.10;5.80;;;10.20;99.90;;;;;;4972592;28;20480;-74
2021/11/08 11:11:01;;;;;;;20.97;7.07;;;10.20;99.90;;;;;;4971047;28;20564;-74
2021/11/08 11:13:28;;;;;;;18.43;6.57;;;10.20;99.90;;;;;;4971102;28;20798;-75
2021/11/08 11:16:02;;;;;;;16.40;5.30;;;10.20;99.90;;;;;;4976199;28;20503;-74
2021/11/08 11:18:34;;;;;;;13.37;5.30;;;10.20;99.90;;;;;;4991621;28;20441;-75
2021/11/08 11:21:16;;;;;;;12.10;5.03;;;10.00;99.90;;;;;;4991624;28;20436;-75
2021/11/08 11:23:50;;;;;;;17.83;5.70;;;9.80;99.90;;;;;;4991563;28;20462;-75
2021/11/08 11:26:17;;;;;;;9.80;5.17;;;9.90;99.90;;;;;;4991574;28;20418;-75
2021/11/08 11:28:47;;;;;;;11.30;4.97;;;10.50;99.90;;;;;;4990279;28;20436;-75
2021/11/08 11:31:19;;;;;;;9.43;4.80;;;10.90;99.90;;;;;;4991102;28;20444;-75
2021/11/08 11:33:46;;;;;;;10.50;4.77;;;11.20;99.90;;;;;;4991551;28;20779;-75
2021/11/08 11:36:17;;;;;;;14.47;4.33;;;11.30;99.90;;;;;;4990146;28;20482;-75
2021/11/08 11:38:54;;;;;;;13.77;5.20;;;11.40;99.90;;;;;;4991865;28;20414;-75
2021/11/08 11:41:23;;;;;;;14.60;4.87;;;11.50;99.90;;;;;;4991476;28;20438;-75
2021/11/08 11:43:54;;;;;;;15.73;4.93;;;11.50;99.90;;;;;;4990310;28;20522;-75
2021/11/08 11:46:30;;;;;;;11.10;4.97;;;11.30;99.90;;;;;;4991223;28;20422;-75
2021/11/08 11:48:57;;;;;;;9.80;4.93;;;11.40;99.90;;;;;;4991472;28;20405;-75
2021/11/08 11:51:27;;;;;;;11.07;5.30;;;11.40;99.90;;;;;;4991080;28;20441;-75
2021/11/08 11:53:54;;;;;;;10.57;6.00;;;11.40;99.90;;;;;;4990100;28;20444;-75
2021/11/08 11:56:22;;;;;;;17.83;5.67;;;11.30;99.90;;;;;;4991137;28;20430;-74
2021/11/08 11:58:48;;;;;;;20.57;4.40;;;11.30;99.90;;;;;;4991798;28;20407;-77
2021/11/08 12:01:20;;;;;;;13.30;5.17;;;11.30;99.90;;;;;;4991854;28;20789;-76
2021/11/08 12:03:47;;;;;;;19.53;6.23;;;11.50;99.90;;;;;;4991469;28;20469;-75
2021/11/08 12:06:22;;;;;;;19.83;5.60;;;11.60;99.90;;;;;;4991480;28;20426;-75
2021/11/08 12:08:53;;;;;;;10.40;5.00;;;11.30;99.90;;;;;;4993225;28;20414;-75
2021/11/08 12:11:30;;;;;;;17.23;6.10;;;11.50;99.90;;;;;;4995216;28;20431;-75
2021/11/08 12:14:03;;;;;;;13.40;4.97;;;11.60;99.90;;;;;;4994649;28;20936;-75
2021/11/08 12:16:29;;;;;;;15.60;5.63;;;11.30;99.90;;;;;;4989398;28;20627;-75
2021/11/08 12:18:57;;;;;;;17.00;5.47;;;10.70;99.90;;;;;;4974810;28;20464;-75
2021/11/08 12:21:32;;;;;;;17.03;5.57;;;10.30;99.90;;;;;;4975805;28;20504;-75
2021/11/08 12:24:00;;;;;;;14.20;4.80;;;10.40;99.90;;;;;;4975973;28;21044;-75
2021/11/08 12:26:31;;;;;;;18.07;4.93;;;10.20;99.90;;;;;;4975508;28;20497;-75
2021/11/08 12:29:19;;;;;;;13.03;5.40;;;10.10;99.90;;;;;;4975637;28;20441;-75
2021/11/08 12:31:46;;;;;;;13.17;4.53;;;10.20;99.90;;;;;;4975515;28;20460;-75
2021/11/08 12:34:18;;;;;;;15.40;4.70;;;10.50;99.90;;;;;;4975514;28;20782;-75
2021/11/08 12:37:02;;;;;;;14.50;4.73;;;10.50;99.90;;;;;;4975698;28;20429;-75
2021/11/08 12:39:31;;;;;;;11.73;4.77;;;10.60;99.90;;;;;;4975869;28;20496;-75
2021/11/08 12:42:05;;;;;;;17.20;4.57;;;10.70;99.90;;;;;;4975604;28;20525;-75
2021/11/08 12:44:39;;;;;;;13.27;4.77;;;10.60;99.90;;;;;;4976898;28;20472;-75
2021/11/08 12:47:06;;;;;;;15.60;4.70;;;10.60;99.90;;;;;;4971328;28;20489;-75
2021/11/08 12:49:53;;;;;;;13.00;5.53;;;10.50;99.90;;;;;;4957493;28;20774;-75
2021/11/08 12:52:22;;;;;;;17.60;4.83;;;10.60;99.90;;;;;;4957548;28;20463;-75
2021/11/08 12:55:19;;;;;;;10.77;4.57;;;10.80;99.90;;;;;;4970295;28;20476;-75
2021/11/08 12:57:54;;;;;;;17.70;4.97;;;10.80;99.90;;;;;;4973900;28;20435;-75
2021/11/08 13:00:26;;;;;;;13.30;4.00;;;10.80;99.90;;;;;;4973307;28;20515;-75
2021/11/08 13:03:00;;;;;;;14.70;5.93;;;10.80;99.90;;;;;;4976689;28;20471;-75
2021/11/08 13:05:31;;;;;;;10.53;4.23;;;10.80;99.90;;;;;;4963074;28;20523;-75
2021/11/08 13:07:59;;;;;;;10.23;4.30;;;10.90;99.90;;;;;;4969746;28;20430;-75
2021/11/08 13:10:33;;;;;;;14.93;4.33;;;11.10;99.90;;;;;;4988760;28;20424;-75
2021/11/08 13:13:00;;;;;;;14.10;4.53;;;11.30;99.90;;;;;;4993710;28;20420;-76
2021/11/08 13:15:31;;;;;;;12.47;4.47;;;11.20;99.90;;;;;;4992528;28;20434;-75
2021/11/08 13:18:10;;;;;;;13.70;5.30;;;11.30;99.90;;;;;;4988962;28;20421;-76
2021/11/08 13:20:47;;;;;;;6.50;3.40;;;11.20;99.90;;;;;;4958996;28;20441;-75
2021/11/08 13:23:23;;;;;;;10.03;3.30;;;11.20;99.90;;;;;;4953374;28;20466;-76
2021/11/08 13:25:53;;;;;;;6.73;2.73;;;11.00;99.90;;;;;;4955118;28;20433;-75
2021/11/08 13:28:24;;;;;;;10.60;3.20;;;10.80;99.90;;;;;;4954747;29;20411;-75
2021/11/08 13:30:56;;;;;;;20.97;8.23;;;10.70;99.90;;;;;;4954731;29;20436;-75
2021/11/08 13:33:24;;;;;;;9.93;3.00;;;10.60;99.90;;;;;;4954366;28;20456;-76
2021/11/08 13:35:50;;;;;;;9.33;3.53;;;10.50;99.90;;;;;;4954965;29;20479;-77
2021/11/08 13:38:20;;;;;;;11.10;2.90;;;10.40;99.90;;;;;;4954193;29;20437;-77
2021/11/08 13:40:55;;;;;;;9.67;3.23;;;10.30;99.90;;;;;;4955735;28;20210;-77
2021/11/08 13:43:25;;;;;;;11.40;3.70;;;10.10;99.90;;;;;;4955578;29;20466;-77
2021/11/08 13:46:17;;;;;;;14.10;4.20;;;10.10;99.90;;;;;;4958487;28;20513;-76
2021/11/08 13:48:48;;;;;;;12.00;4.00;;;10.10;99.90;;;;;;4970648;28;20426;-77
2021/11/08 13:51:21;;;;;;;12.67;4.03;;;10.00;99.90;;;;;;4972994;28;21029;-78
2021/11/08 13:53:52;;;;;;;9.23;3.67;;;10.00;99.90;;;;;;4974538;28;20472;-75
2021/11/08 13:56:19;;;;;;;7.83;3.50;;;10.00;99.90;;;;;;4972649;28;20469;-79
2021/11/08 13:58:52;;;;;;;6.43;3.13;;;10.00;99.90;;;;;;4973780;28;20442;-78
2021/11/08 14:01:20;;;;;;;12.13;4.70;;;9.90;99.90;;;;;;4981477;28;20498;-76
2021/11/08 14:03:48;;;;;;;7.80;4.20;;;9.90;99.90;;;;;;4973462;28;20551;-76
2021/11/08 14:06:36;;;;;;;11.30;5.63;;;9.90;99.90;;;;;;4974071;28;20504;-77
2021/11/08 14:09:05;;;;;;;8.40;4.77;;;9.80;99.90;;;;;;4974024;28;20905;-77
2021/11/08 14:11:35;;;;;;;15.63;5.67;;;9.90;99.90;;;;;;4973948;28;20432;-77
2021/11/08 14:14:17;;;;;;;21.43;6.00;;;10.00;99.90;;;;;;4972324;28;20499;-77
2021/11/08 14:16:47;;;;;;;21.17;7.77;;;10.10;99.90;;;;;;4973660;28;20424;-76
2021/11/08 14:19:14;;;;;;;11.23;5.50;;;10.20;99.90;;;;;;4972338;28;20434;-76
2021/11/08 14:21:42;;;;;;;14.17;5.80;;;10.20;99.90;;;;;;4973340;28;20442;-76
2021/11/08 14:24:10;;;;;;;17.03;6.27;;;10.10;99.90;;;;;;4976586;28;20820;-76
2021/11/08 14:26:38;;;;;;;11.87;6.00;;;9.90;99.90;;;;;;4981038;28;20486;-76
2021/11/08 14:29:14;;;;;;;18.47;6.10;;;9.90;99.90;;;;;;4976861;28;20421;-76
2021/11/08 14:31:40;;;;;;;13.17;5.50;;;9.80;99.90;;;;;;4991456;28;20456;-76
2021/11/08 14:34:13;;;;;;;11.00;6.73;;;9.80;99.90;;;;;;4991899;28;20436;-76
2021/11/08 14:36:48;;;;;;;15.63;6.13;;;9.80;99.90;;;;;;4992267;28;20970;-76
2021/11/08 14:39:17;;;;;;;18.50;6.77;;;9.80;99.90;;;;;;4992079;28;20650;-76
2021/11/08 14:42:00;;;;;;;11.33;6.37;;;9.70;99.90;;;;;;4978682;28;20539;-76
2021/11/08 14:44:41;;;;;;;10.93;6.10;;;9.70;99.90;;;;;;4969215;28;20482;-76
2021/11/08 14:47:28;;;;;;;8.33;5.37;;;9.60;99.90;;;;;;4959773;28;20423;-77
2021/11/08 14:50:11;;;;;;;13.70;5.43;;;9.50;99.90;;;;;;4963077;28;20422;-77
2021/11/08 14:52:42;;;;;;;10.43;4.70;;;9.40;99.90;;;;;;4965042;28;20532;-77
2021/11/08 14:55:12;;;;;;;12.90;5.33;;;9.40;99.90;;;;;;4964090;28;20413;-77
2021/11/08 14:57:43;;;;;;;14.83;4.70;;;9.30;99.90;;;;;;4963709;28;20426;-77
2021/11/08 15:00:13;;;;;;;10.70;5.10;;;9.30;99.90;;;;;;4967359;28;20476;-77
2021/11/08 15:02:39;;;;;;;10.73;4.70;;;9.20;99.90;;;;;;4963612;28;20522;-77
2021/11/08 15:05:14;;;;;;;14.83;5.30;;;9.10;99.90;;;;;;4963434;28;20459;-77
2021/11/08 15:07:44;;;;;;;12.63;4.73;;;9.10;99.90;;;;;;4964760;28;20998;-77
2021/11/08 15:10:20;;;;;;;13.17;4.60;;;9.10;99.90;;;;;;4962928;28;20470;-77
2021/11/08 15:12:46;;;;;;;13.37;4.63;;;9.00;99.90;;;;;;4966091;28;20431;-77
2021/11/08 15:15:26;;;;;;;11.30;4.73;;;9.00;99.90;;;;;;4958872;28;20426;-77
2021/11/08 15:18:00;;;;;;;13.00;5.63;;;9.00;99.90;;;;;;4969754;28;20417;-77
2021/11/08 15:20:32;;;;;;;21.37;5.27;;;8.90;99.90;;;;;;4962602;28;20429;-75
2021/11/08 15:23:30;;;;;;;13.47;4.83;;;8.90;99.90;;;;;;4953205;28;20454;-75
2021/11/08 15:26:02;;;;;;;9.93;5.10;;;8.80;99.90;;;;;;4950886;28;20785;-75
2021/11/08 15:28:46;;;;;;;11.60;5.07;;;8.70;99.90;;;;;;4953197;28;20394;-75
2021/11/08 15:31:17;;;;;;;17.00;5.43;;;8.70;99.90;;;;;;4951691;28;20468;-76
2021/11/08 15:33:51;;;;;;;11.93;5.73;;;8.50;99.90;;;;;;4953301;28;20765;-75
2021/11/08 15:36:32;;;;;;;13.17;5.83;;;8.40;99.90;;;;;;4953327;29;20457;-74
2021/11/08 15:39:05;;;;;;;12.63;5.43;;;8.40;99.90;;;;;;4952837;29;20411;-76
2021/11/08 15:41:31;;;;;;;10.90;6.00;;;8.20;99.90;;;;;;4953102;28;20797;-76
2021/11/08 15:43:58;;;;;;;15.13;7.30;;;8.10;99.90;;;;;;4954785;28;20467;-76
2021/11/08 15:46:24;;;;;;;16.30;7.70;;;8.00;99.90;;;;;;4957101;28;20405;-76
2021/11/08 15:48:52;;;;;;;15.60;7.80;;;7.90;99.90;;;;;;4957427;28;20779;-76
2021/11/08 15:51:26;;;;;;;14.53;8.00;;;7.80;99.90;;;;;;4960507;28;20265;-76
2021/11/08 15:53:53;;;;;;;16.20;10.07;;;7.60;99.90;;;;;;4966567;28;20511;-79
2021/11/08 15:56:19;;;;;;;27.43;13.77;;;7.60;99.90;;;;;;4990524;28;20411;-80
2021/11/08 15:58:44;;;;;;;19.50;11.03;;;7.40;99.90;;;;;;4996443;28;20426;-79
2021/11/08 16:01:10;;;;;;;18.77;10.53;;;7.40;99.90;;;;;;4996764;28;20526;-79
2021/11/08 16:03:36;;;;;;;14.60;8.60;;;7.30;99.90;;;;;;4996363;28;20209;-80
2021/11/08 16:06:03;;;;;;;19.13;9.00;;;7.20;99.90;;;;;;4996261;28;20195;-79
2021/11/08 16:08:29;;;;;;;23.37;7.90;;;7.10;99.90;;;;;;4995930;28;20416;-79
2021/11/08 16:10:54;;;;;;;22.53;6.47;;;7.10;99.90;;;;;;4995886;28;20521;-77
2021/11/08 16:13:20;;;;;;;20.93;7.17;;;7.00;99.90;;;;;;4994355;28;20182;-76
2021/11/08 16:15:50;;;;;;;11.70;5.93;;;7.00;99.90;;;;;;4995300;28;20184;-76
2021/11/08 16:18:19;;;;;;;15.80;6.53;;;6.90;99.90;;;;;;4994548;28;20681;-75
2021/11/08 16:20:50;;;;;;;18.43;7.20;;;6.80;99.90;;;;;;4995049;28;20436;-76
2021/11/08 16:23:20;;;;;;;17.90;6.77;;;6.70;99.90;;;;;;4995025;28;20835;-74
2021/11/08 16:25:54;;;;;;;13.80;7.00;;;6.60;99.90;;;;;;4994972;28;20939;-76
2021/11/08 16:28:22;;;;;;;11.83;5.70;;;6.50;99.90;;;;;;4968412;28;20823;-76
2021/11/08 16:30:49;;;;;;;11.63;6.23;;;6.50;99.90;;;;;;4992297;28;20446;-76
2021/11/08 16:33:29;;;;;;;12.90;6.67;;;6.30;99.90;;;;;;4994129;28;20477;-76
2021/11/08 16:35:55;;;;;;;17.03;5.67;;;6.20;99.90;;;;;;4994391;28;20413;-76
2021/11/08 16:38:26;;;;;;;15.80;5.80;;;6.10;99.90;;;;;;4994320;28;20429;-76
2021/11/08 16:40:59;;;;;;;13.80;6.30;;;6.00;99.90;;;;;;4994272;28;20429;-76
2021/11/08 16:43:25;;;;;;;11.80;6.30;;;5.90;99.90;;;;;;4993933;28;20470;-76
2021/11/08 16:46:11;;;;;;;22.07;7.07;;;5.80;99.90;;;;;;4994413;28;20509;-76
2021/11/08 16:48:45;;;;;;;14.00;5.90;;;5.70;99.90;;;;;;4994190;28;20414;-76
2021/11/08 16:51:12;;;;;;;8.17;5.03;;;5.60;99.90;;;;;;4992809;28;20449;-76
2021/11/08 16:53:40;;;;;;;21.30;9.03;;;5.60;99.90;;;;;;4981155;28;20754;-76
2021/11/08 16:56:07;;;;;;;14.77;7.53;;;5.50;99.90;;;;;;4973504;28;20481;-76
2021/11/08 16:58:33;;;;;;;10.00;7.23;;;5.40;99.90;;;;;;4974697;28;20421;-76
2021/11/08 17:01:00;;;;;;;11.90;6.10;;;5.30;99.90;;;;;;4974575;28;20453;-76
2021/11/08 17:03:27;;;;;;;14.60;5.57;;;5.20;99.90;;;;;;4974212;28;20466;-76
2021/11/08 17:06:00;;;;;;;15.17;8.10;;;5.10;99.90;;;;;;4974605;28;20943;-76
2021/11/08 17:08:34;;;;;;;13.47;8.80;;;5.10;99.90;;;;;;4973353;28;20925;-76
2021/11/08 17:13:46;;;;;;;20.20;10.80;;;4.90;99.90;;;;;;4974397;28;20453;-76
2021/11/08 17:16:12;;;;;;;13.23;9.10;;;4.90;99.90;;;;;;4974562;28;20419;-76
2021/11/08 17:18:39;;;;;;;24.30;11.07;;;4.80;99.90;;;;;;4974371;28;20428;-76
2021/11/08 17:21:06;;;;;;;29.03;11.23;;;4.70;99.90;;;;;;4972738;28;20446;-76
2021/11/08 17:23:35;;;;;;;20.60;8.60;;;4.70;99.90;;;;;;4974161;28;20466;-76
2021/11/08 17:26:02;;;;;;;17.67;7.10;;;4.70;99.90;;;;;;4975394;28;20469;-76
2021/11/08 17:28:28;;;;;;;16.00;6.90;;;4.60;99.90;;;;;;4985296;28;20426;-76
2021/11/08 17:30:54;;;;;;;12.43;6.83;;;4.50;99.90;;;;;;4988607;28;20465;-76
2021/11/08 17:33:19;;;;;;;11.90;5.93;;;4.40;99.90;;;;;;4988825;28;20807;-76
2021/11/08 17:35:45;;;;;;;15.83;6.57;;;4.40;99.90;;;;;;4974137;28;20180;-76
2021/11/08 17:38:11;;;;;;;16.33;5.63;;;4.30;99.90;;;;;;4988925;28;20811;-76
2021/11/08 17:40:38;;;;;;;21.77;9.10;;;4.30;99.90;;;;;;4974056;28;20206;-76
2021/11/08 17:43:05;;;;;;;14.80;8.07;;;4.20;99.90;;;;;;4990323;28;20475;-76
2021/11/08 17:45:31;;;;;;;13.47;8.07;;;4.20;99.90;;;;;;4993290;28;20920;-76
2021/11/08 17:47:58;;;;;;;23.33;8.47;;;4.10;99.90;;;;;;4993467;28;20395;-76
2021/11/08 17:50:25;;;;;;;15.30;7.73;;;4.00;99.90;;;;;;4992957;28;20790;-76
2021/11/08 17:52:51;;;;;;;17.80;6.63;;;4.00;99.90;;;;;;4993298;28;20470;-76
2021/11/08 17:55:21;;;;;;;11.07;5.93;;;3.90;99.90;;;;;;4992710;28;20449;-76
2021/11/08 17:57:48;;;;;;;13.27;5.80;;;3.90;99.90;;;;;;4985407;28;20237;-75
2021/11/08 18:00:16;;;;;;;12.90;6.83;;;3.90;99.90;;;;;;4962626;28;20483;-76
2021/11/08 18:02:42;;;;;;;21.07;6.50;;;3.90;99.90;;;;;;4967813;28;20446;-76
2021/11/08 18:05:09;;;;;;;11.67;5.77;;;3.80;99.90;;;;;;4964092;28;20457;-76
2021/11/08 18:07:39;;;;;;;25.67;6.20;;;3.80;99.90;;;;;;4964740;28;20475;-76
2021/11/08 18:10:09;;;;;;;15.57;5.47;;;3.70;99.90;;;;;;4955639;28;20478;-76
2021/11/08 18:12:38;;;;;;;8.53;5.20;;;3.70;99.90;;;;;;4961920;28;20466;-76
2021/11/08 18:15:04;;;;;;;12.03;5.30;;;3.70;99.90;;;;;;4965115;28;20853;-76
2021/11/08 18:17:32;;;;;;;10.20;5.97;;;3.60;99.90;;;;;;4965062;28;20463;-76
2021/11/08 18:20:01;;;;;;;15.50;7.53;;;3.60;99.90;;;;;;4956353;28;20549;-76
2021/11/08 18:22:38;;;;;;;18.40;6.93;;;3.60;99.90;;;;;;4955844;28;20540;-76